sensor_id;sensor_type;location;lat;lon;timestamp;pressure;altitude;pressure_sealevel;temperature;humidity
72677;BME280;60755;51.374;10.662;2022-07-12T00:01:42;97975.13;;;12.47;92.48
72677;BME280;60755;51.374;10.662;2022-07-12T00:04:10;97977.63;;;12.42;92.43
72677;BME280;60755;51.374;10.662;2022-07-12T00:06:36;97977.63;;;12.42;92.31
72677;BME280;60755;51.374;10.662;2022-07-12T00:09:03;97976.59;;;12.31;92.36
72677;BME280;60755;51.374;10.662;2022-07-12T00:11:29;97975.09;;;12.35;92.43
72677;BME280;60755;51.374;10.662;2022-07-12T00:13:56;97978.56;;;12.36;92.25
72677;BME280;60755;51.374;10.662;2022-07-12T00:16:22;97979.88;;;12.26;91.77
72677;BME280;60755;51.374;10.662;2022-07-12T00:18:49;97975.31;;;12.22;92.56
72677;BME280;60755;51.374;10.662;2022-07-12T00:21:17;97975.75;;;12.07;92.55
72677;BME280;60755;51.374;10.662;2022-07-12T00:23:43;97978.69;;;11.99;91.83
72677;BME280;60755;51.374;10.662;2022-07-12T00:26:09;97968.50;;;12.02;93.23
72677;BME280;60755;51.374;10.662;2022-07-12T00:28:36;97974.94;;;12.07;92.90
72677;BME280;60755;51.374;10.662;2022-07-12T00:31:03;97974.03;;;12.13;92.33
72677;BME280;60755;51.374;10.662;2022-07-12T00:33:30;97974.00;;;12.01;92.42
72677;BME280;60755;51.374;10.662;2022-07-12T00:35:57;97975.22;;;11.87;92.27
72677;BME280;60755;51.374;10.662;2022-07-12T00:38:25;97979.75;;;11.80;92.74
72677;BME280;60755;51.374;10.662;2022-07-12T00:40:51;97986.94;;;11.72;92.21
72677;BME280;60755;51.374;10.662;2022-07-12T00:43:17;97979.63;;;11.74;92.67
72677;BME280;60755;51.374;10.662;2022-07-12T00:45:44;97980.38;;;11.63;92.38
72677;BME280;60755;51.374;10.662;2022-07-12T00:48:11;97975.53;;;11.60;92.01
72677;BME280;60755;51.374;10.662;2022-07-12T00:50:38;97979.66;;;11.56;92.61
72677;BME280;60755;51.374;10.662;2022-07-12T00:53:05;97978.47;;;11.52;92.64
72677;BME280;60755;51.374;10.662;2022-07-12T00:55:33;97972.88;;;11.48;92.58
72677;BME280;60755;51.374;10.662;2022-07-12T00:57:59;97978.66;;;11.69;92.28
72677;BME280;60755;51.374;10.662;2022-07-12T01:00:27;97976.22;;;11.56;92.80
72677;BME280;60755;51.374;10.662;2022-07-12T01:02:54;97973.28;;;11.64;92.95
72677;BME280;60755;51.374;10.662;2022-07-12T01:05:21;97972.69;;;11.62;93.34
72677;BME280;60755;51.374;10.662;2022-07-12T01:07:49;97970.28;;;11.60;93.66
72677;BME280;60755;51.374;10.662;2022-07-12T01:10:15;97976.44;;;11.54;93.54
72677;BME280;60755;51.374;10.662;2022-07-12T01:12:43;97974.28;;;11.63;92.93
72677;BME280;60755;51.374;10.662;2022-07-12T01:15:10;97979.47;;;11.69;93.19
72677;BME280;60755;51.374;10.662;2022-07-12T01:17:38;97977.72;;;11.82;92.78
72677;BME280;60755;51.374;10.662;2022-07-12T01:20:05;97977.66;;;11.88;92.68
72677;BME280;60755;51.374;10.662;2022-07-12T01:22:34;97979.59;;;11.93;91.90
72677;BME280;60755;51.374;10.662;2022-07-12T01:25:04;97975.28;;;12.10;91.21
72677;BME280;60755;51.374;10.662;2022-07-12T01:27:31;97970.78;;;11.99;91.33
72677;BME280;60755;51.374;10.662;2022-07-12T01:30:00;97973.88;;;11.96;91.39
72677;BME280;60755;51.374;10.662;2022-07-12T01:32:27;97974.19;;;11.69;91.78
72677;BME280;60755;51.374;10.662;2022-07-12T01:34:56;97975.13;;;11.63;92.01
72677;BME280;60755;51.374;10.662;2022-07-12T01:37:24;97972.19;;;11.53;91.77
72677;BME280;60755;51.374;10.662;2022-07-12T01:39:51;97975.59;;;11.42;92.04
72677;BME280;60755;51.374;10.662;2022-07-12T01:42:20;97973.22;;;11.52;92.64
72677;BME280;60755;51.374;10.662;2022-07-12T01:44:48;97970.47;;;11.47;92.82
72677;BME280;60755;51.374;10.662;2022-07-12T01:47:15;97972.28;;;11.46;92.05
72677;BME280;60755;51.374;10.662;2022-07-12T01:49:41;97968.25;;;11.44;92.72
72677;BME280;60755;51.374;10.662;2022-07-12T01:52:08;97969.25;;;11.31;92.39
72677;BME280;60755;51.374;10.662;2022-07-12T01:54:34;97979.53;;;11.33;93.27
72677;BME280;60755;51.374;10.662;2022-07-12T01:57:01;97969.31;;;11.25;93.00
72677;BME280;60755;51.374;10.662;2022-07-12T01:59:30;97960.69;;;11.17;92.80
72677;BME280;60755;51.374;10.662;2022-07-12T02:01:57;97961.13;;;11.14;93.13
72677;BME280;60755;51.374;10.662;2022-07-12T02:04:23;97957.84;;;11.19;93.06
72677;BME280;60755;51.374;10.662;2022-07-12T02:06:50;97951.78;;;11.18;92.92
72677;BME280;60755;51.374;10.662;2022-07-12T02:09:17;97952.88;;;11.11;93.00
72677;BME280;60755;51.374;10.662;2022-07-12T02:11:44;97949.91;;;11.07;93.21
72677;BME280;60755;51.374;10.662;2022-07-12T02:14:12;97948.66;;;11.10;93.33
72677;BME280;60755;51.374;10.662;2022-07-12T02:16:40;97951.03;;;11.11;93.36
72677;BME280;60755;51.374;10.662;2022-07-12T02:19:07;97941.25;;;11.18;93.35
72677;BME280;60755;51.374;10.662;2022-07-12T02:21:33;97947.63;;;11.11;93.06
72677;BME280;60755;51.374;10.662;2022-07-12T02:24:00;97953.97;;;11.03;93.17
72677;BME280;60755;51.374;10.662;2022-07-12T02:26:27;97956.59;;;11.03;93.38
72677;BME280;60755;51.374;10.662;2022-07-12T02:28:53;97961.56;;;11.11;93.58
72677;BME280;60755;51.374;10.662;2022-07-12T02:31:19;97963.13;;;11.01;93.19
72677;BME280;60755;51.374;10.662;2022-07-12T02:33:47;97966.31;;;11.03;93.33
72677;BME280;60755;51.374;10.662;2022-07-12T02:36:13;97960.41;;;11.07;93.17
72677;BME280;60755;51.374;10.662;2022-07-12T02:38:40;97973.06;;;11.17;93.06
72677;BME280;60755;51.374;10.662;2022-07-12T02:41:06;97967.47;;;11.07;92.89
72677;BME280;60755;51.374;10.662;2022-07-12T02:43:33;97965.28;;;11.04;92.98
72677;BME280;60755;51.374;10.662;2022-07-12T02:46:04;97965.06;;;11.05;93.19
72677;BME280;60755;51.374;10.662;2022-07-12T02:48:31;97968.28;;;10.89;93.38
72677;BME280;60755;51.374;10.662;2022-07-12T02:51:00;97967.34;;;11.02;93.81
72677;BME280;60755;51.374;10.662;2022-07-12T02:53:27;97962.00;;;10.90;93.62
72677;BME280;60755;51.374;10.662;2022-07-12T02:55:53;97967.53;;;10.82;93.61
72677;BME280;60755;51.374;10.662;2022-07-12T02:58:20;97976.91;;;10.78;93.59
72677;BME280;60755;51.374;10.662;2022-07-12T03:00:46;97970.34;;;10.87;94.12
72677;BME280;60755;51.374;10.662;2022-07-12T03:03:13;97980.63;;;11.07;93.59
72677;BME280;60755;51.374;10.662;2022-07-12T03:05:40;97975.75;;;11.10;93.46
72677;BME280;60755;51.374;10.662;2022-07-12T03:08:09;97977.34;;;10.93;93.39
72677;BME280;60755;51.374;10.662;2022-07-12T03:10:36;97978.66;;;10.84;94.38
72677;BME280;60755;51.374;10.662;2022-07-12T03:13:03;97979.41;;;11.09;93.31
72677;BME280;60755;51.374;10.662;2022-07-12T03:15:30;97988.22;;;10.97;93.33
72677;BME280;60755;51.374;10.662;2022-07-12T03:17:59;97976.03;;;11.20;93.22
72677;BME280;60755;51.374;10.662;2022-07-12T03:20:26;97985.84;;;11.32;93.59
72677;BME280;60755;51.374;10.662;2022-07-12T03:22:52;97981.69;;;11.54;93.30
72677;BME280;60755;51.374;10.662;2022-07-12T03:25:20;97986.53;;;11.57;93.00
72677;BME280;60755;51.374;10.662;2022-07-12T03:27:47;97983.00;;;11.82;92.05
72677;BME280;60755;51.374;10.662;2022-07-12T03:30:15;97988.41;;;11.68;92.28
72677;BME280;60755;51.374;10.662;2022-07-12T03:32:42;97995.56;;;11.61;92.60
72677;BME280;60755;51.374;10.662;2022-07-12T03:35:09;97995.41;;;11.74;92.50
72677;BME280;60755;51.374;10.662;2022-07-12T03:37:42;97998.38;;;12.38;91.91
72677;BME280;60755;51.374;10.662;2022-07-12T03:40:10;98006.63;;;13.35;88.22
72677;BME280;60755;51.374;10.662;2022-07-12T03:42:38;98014.63;;;14.54;85.47
72677;BME280;60755;51.374;10.662;2022-07-12T03:45:05;98010.28;;;15.21;79.74
72677;BME280;60755;51.374;10.662;2022-07-12T03:47:31;98011.53;;;15.79;77.03
72677;BME280;60755;51.374;10.662;2022-07-12T03:50:00;98007.16;;;15.89;74.79
72677;BME280;60755;51.374;10.662;2022-07-12T03:52:27;98012.78;;;15.71;75.83
72677;BME280;60755;51.374;10.662;2022-07-12T03:54:53;98011.88;;;16.73;73.63
72677;BME280;60755;51.374;10.662;2022-07-12T03:57:20;98015.72;;;18.18;69.70
72677;BME280;60755;51.374;10.662;2022-07-12T03:59:47;98022.50;;;19.56;62.87
72677;BME280;60755;51.374;10.662;2022-07-12T04:02:14;98015.00;;;20.52;59.37
72677;BME280;60755;51.374;10.662;2022-07-12T04:04:40;98023.44;;;21.22;56.50
72677;BME280;60755;51.374;10.662;2022-07-12T04:07:07;98027.16;;;21.93;55.28
72677;BME280;60755;51.374;10.662;2022-07-12T04:09:34;98023.84;;;22.39;50.77
72677;BME280;60755;51.374;10.662;2022-07-12T04:12:00;98022.28;;;22.84;49.78
72677;BME280;60755;51.374;10.662;2022-07-12T04:14:27;98025.44;;;23.19;50.06
72677;BME280;60755;51.374;10.662;2022-07-12T04:16:55;98032.50;;;23.84;47.48
72677;BME280;60755;51.374;10.662;2022-07-12T04:19:22;98022.97;;;24.14;46.40
72677;BME280;60755;51.374;10.662;2022-07-12T04:21:52;98032.41;;;24.25;47.53
72677;BME280;60755;51.374;10.662;2022-07-12T04:24:19;98038.09;;;24.91;46.79
72677;BME280;60755;51.374;10.662;2022-07-12T04:26:46;98041.97;;;25.38;43.50
72677;BME280;60755;51.374;10.662;2022-07-12T04:29:12;98048.00;;;25.83;42.93
72677;BME280;60755;51.374;10.662;2022-07-12T04:31:38;98050.56;;;26.06;42.38
72677;BME280;60755;51.374;10.662;2022-07-12T04:34:06;98054.03;;;26.93;40.93
72677;BME280;60755;51.374;10.662;2022-07-12T04:36:33;98054.00;;;27.10;40.59
72677;BME280;60755;51.374;10.662;2022-07-12T04:38:59;98052.41;;;27.09;40.77
72677;BME280;60755;51.374;10.662;2022-07-12T04:41:25;98055.28;;;28.10;39.00
72677;BME280;60755;51.374;10.662;2022-07-12T04:43:52;98055.25;;;27.59;40.61
72677;BME280;60755;51.374;10.662;2022-07-12T04:46:18;98055.66;;;28.62;38.45
72677;BME280;60755;51.374;10.662;2022-07-12T04:48:45;98052.94;;;29.29;37.23
72677;BME280;60755;51.374;10.662;2022-07-12T04:51:12;98060.25;;;29.40;37.76
72677;BME280;60755;51.374;10.662;2022-07-12T04:53:40;98062.16;;;29.27;37.72
72677;BME280;60755;51.374;10.662;2022-07-12T04:56:07;98076.50;;;29.28;38.10
72677;BME280;60755;51.374;10.662;2022-07-12T04:58:33;98072.84;;;29.69;36.40
72677;BME280;60755;51.374;10.662;2022-07-12T05:01:00;98078.59;;;29.92;37.55
72677;BME280;60755;51.374;10.662;2022-07-12T05:03:26;98069.44;;;30.09;37.69
72677;BME280;60755;51.374;10.662;2022-07-12T05:05:54;98074.78;;;30.61;36.88
72677;BME280;60755;51.374;10.662;2022-07-12T05:08:22;98067.66;;;30.69;36.53
72677;BME280;60755;51.374;10.662;2022-07-12T05:10:48;98068.56;;;31.33;36.31
72677;BME280;60755;51.374;10.662;2022-07-12T05:13:15;98070.66;;;30.80;35.45
72677;BME280;60755;51.374;10.662;2022-07-12T05:15:41;98077.25;;;31.54;36.01
72677;BME280;60755;51.374;10.662;2022-07-12T05:18:08;98072.22;;;31.09;34.39
72677;BME280;60755;51.374;10.662;2022-07-12T05:20:34;98073.72;;;31.06;35.44
72677;BME280;60755;51.374;10.662;2022-07-12T05:23:00;98076.28;;;30.87;34.73
72677;BME280;60755;51.374;10.662;2022-07-12T05:25:28;98081.78;;;31.66;33.15
72677;BME280;60755;51.374;10.662;2022-07-12T05:27:54;98082.75;;;31.73;32.97
72677;BME280;60755;51.374;10.662;2022-07-12T05:30:21;98078.88;;;31.74;34.06
72677;BME280;60755;51.374;10.662;2022-07-12T05:32:47;98084.34;;;32.25;32.33
72677;BME280;60755;51.374;10.662;2022-07-12T05:35:14;98083.94;;;32.43;31.47
72677;BME280;60755;51.374;10.662;2022-07-12T05:37:40;98089.13;;;31.97;33.90
72677;BME280;60755;51.374;10.662;2022-07-12T05:40:08;98079.66;;;30.96;35.05
72677;BME280;60755;51.374;10.662;2022-07-12T05:42:36;98080.16;;;30.46;34.65
72677;BME280;60755;51.374;10.662;2022-07-12T05:45:02;98083.13;;;31.40;32.63
72677;BME280;60755;51.374;10.662;2022-07-12T05:47:29;98084.78;;;30.85;35.11
72677;BME280;60755;51.374;10.662;2022-07-12T05:49:55;98089.88;;;31.03;34.52
72677;BME280;60755;51.374;10.662;2022-07-12T05:52:21;98085.56;;;28.66;39.98
72677;BME280;60755;51.374;10.662;2022-07-12T05:55:06;98082.69;;;31.23;36.02
72677;BME280;60755;51.374;10.662;2022-07-12T05:57:32;98089.81;;;30.31;35.76
72677;BME280;60755;51.374;10.662;2022-07-12T06:00:00;98086.34;;;33.52;32.14
72677;BME280;60755;51.374;10.662;2022-07-12T06:02:27;98082.28;;;33.19;35.23
72677;BME280;60755;51.374;10.662;2022-07-12T06:04:53;98089.78;;;34.25;31.98
72677;BME280;60755;51.374;10.662;2022-07-12T06:07:19;98081.72;;;32.87;32.67
72677;BME280;60755;51.374;10.662;2022-07-12T06:09:46;98085.94;;;30.44;36.74
72677;BME280;60755;51.374;10.662;2022-07-12T06:12:12;98093.94;;;29.64;39.92
72677;BME280;60755;51.374;10.662;2022-07-12T06:14:39;98131.66;;;29.81;39.41
72677;BME280;60755;51.374;10.662;2022-07-12T06:17:06;98072.31;;;28.85;39.29
72677;BME280;60755;51.374;10.662;2022-07-12T06:19:34;98076.44;;;28.91;38.57
72677;BME280;60755;51.374;10.662;2022-07-12T06:22:00;98075.44;;;30.43;34.48
72677;BME280;60755;51.374;10.662;2022-07-12T06:24:27;98089.38;;;27.64;41.12
72677;BME280;60755;51.374;10.662;2022-07-12T06:26:53;98078.44;;;31.09;34.15
72677;BME280;60755;51.374;10.662;2022-07-12T06:29:20;98080.97;;;33.32;32.86
72677;BME280;60755;51.374;10.662;2022-07-12T06:31:46;98083.09;;;30.13;37.31
72677;BME280;60755;51.374;10.662;2022-07-12T06:34:14;98083.16;;;29.43;39.21
72677;BME280;60755;51.374;10.662;2022-07-12T06:36:40;98089.72;;;30.68;36.11
72677;BME280;60755;51.374;10.662;2022-07-12T06:39:08;98091.31;;;30.28;35.44
72677;BME280;60755;51.374;10.662;2022-07-12T06:41:35;98100.69;;;27.96;38.03
72677;BME280;60755;51.374;10.662;2022-07-12T06:44:01;98104.53;;;28.78;37.35
72677;BME280;60755;51.374;10.662;2022-07-12T06:46:28;98098.72;;;27.37;39.13
72677;BME280;60755;51.374;10.662;2022-07-12T06:48:54;98102.03;;;28.10;37.99
72677;BME280;60755;51.374;10.662;2022-07-12T06:51:22;98105.72;;;28.89;38.19
72677;BME280;60755;51.374;10.662;2022-07-12T06:53:48;98103.22;;;28.84;36.23
72677;BME280;60755;51.374;10.662;2022-07-12T06:56:14;98099.63;;;31.19;32.91
72677;BME280;60755;51.374;10.662;2022-07-12T06:58:41;98100.84;;;30.50;33.58
72677;BME280;60755;51.374;10.662;2022-07-12T07:01:07;98099.16;;;32.28;30.21
72677;BME280;60755;51.374;10.662;2022-07-12T07:03:34;98092.25;;;29.02;34.43
72677;BME280;60755;51.374;10.662;2022-07-12T07:06:00;98101.50;;;28.17;36.43
72677;BME280;60755;51.374;10.662;2022-07-12T07:08:28;98100.28;;;29.68;35.34
72677;BME280;60755;51.374;10.662;2022-07-12T07:10:56;98102.09;;;28.85;36.19
72677;BME280;60755;51.374;10.662;2022-07-12T07:13:22;98098.88;;;30.35;33.43
72677;BME280;60755;51.374;10.662;2022-07-12T07:15:49;98100.03;;;29.03;34.62
72677;BME280;60755;51.374;10.662;2022-07-12T07:18:15;98094.53;;;28.58;35.58
72677;BME280;60755;51.374;10.662;2022-07-12T07:20:42;98102.75;;;26.96;38.44
72677;BME280;60755;51.374;10.662;2022-07-12T07:25:40;98104.53;;;30.98;33.44
72677;BME280;60755;51.374;10.662;2022-07-12T07:28:06;98087.75;;;31.71;31.80
72677;BME280;60755;51.374;10.662;2022-07-12T07:30:33;98093.53;;;32.01;32.28
72677;BME280;60755;51.374;10.662;2022-07-12T07:33:17;98081.22;;;33.47;29.33
72677;BME280;60755;51.374;10.662;2022-07-12T07:35:43;98098.13;;;31.82;31.29
72677;BME280;60755;51.374;10.662;2022-07-12T07:38:09;98089.97;;;31.82;31.73
72677;BME280;60755;51.374;10.662;2022-07-12T07:40:36;98097.72;;;31.99;32.15
72677;BME280;60755;51.374;10.662;2022-07-12T07:43:04;98093.88;;;26.87;39.76
72677;BME280;60755;51.374;10.662;2022-07-12T07:45:30;98087.34;;;27.14;42.73
72677;BME280;60755;51.374;10.662;2022-07-12T07:47:57;98091.78;;;27.10;42.05
72677;BME280;60755;51.374;10.662;2022-07-12T07:50:23;98100.25;;;26.65;41.19
72677;BME280;60755;51.374;10.662;2022-07-12T07:52:50;98100.63;;;23.60;47.78
72677;BME280;60755;51.374;10.662;2022-07-12T07:55:16;98101.13;;;22.46;49.32
72677;BME280;60755;51.374;10.662;2022-07-12T07:57:43;98104.03;;;22.12;50.79
72677;BME280;60755;51.374;10.662;2022-07-12T08:00:13;98109.69;;;22.10;50.77
72677;BME280;60755;51.374;10.662;2022-07-12T08:02:40;98109.81;;;22.38;50.71
72677;BME280;60755;51.374;10.662;2022-07-12T08:05:07;98105.47;;;22.60;49.36
72677;BME280;60755;51.374;10.662;2022-07-12T08:07:33;98109.31;;;23.38;49.79
72677;BME280;60755;51.374;10.662;2022-07-12T08:09:59;98103.19;;;23.52;47.84
72677;BME280;60755;51.374;10.662;2022-07-12T08:12:26;98094.84;;;23.81;52.22
72677;BME280;60755;51.374;10.662;2022-07-12T08:14:52;98094.13;;;23.48;46.61
72677;BME280;60755;51.374;10.662;2022-07-12T08:17:20;98091.22;;;23.30;45.67
72677;BME280;60755;51.374;10.662;2022-07-12T08:19:46;98088.78;;;23.61;46.46
72677;BME280;60755;51.374;10.662;2022-07-12T08:22:13;98086.88;;;23.34;52.84
72677;BME280;60755;51.374;10.662;2022-07-12T08:24:39;98086.47;;;23.96;51.06
72677;BME280;60755;51.374;10.662;2022-07-12T08:27:05;98079.94;;;24.38;48.61
72677;BME280;60755;51.374;10.662;2022-07-12T08:29:32;98081.34;;;24.36;51.40
72677;BME280;60755;51.374;10.662;2022-07-12T08:31:58;98073.41;;;23.67;46.93
72677;BME280;60755;51.374;10.662;2022-07-12T08:34:26;98076.56;;;22.76;50.71
72677;BME280;60755;51.374;10.662;2022-07-12T08:36:54;98080.47;;;23.16;47.41
72677;BME280;60755;51.374;10.662;2022-07-12T08:39:25;98074.13;;;23.12;48.61
72677;BME280;60755;51.374;10.662;2022-07-12T08:41:54;98070.38;;;23.55;49.87
72677;BME280;60755;51.374;10.662;2022-07-12T08:44:21;98070.19;;;23.65;46.82
72677;BME280;60755;51.374;10.662;2022-07-12T08:46:47;98074.69;;;22.96;48.03
72677;BME280;60755;51.374;10.662;2022-07-12T08:49:13;98069.81;;;22.98;48.96
72677;BME280;60755;51.374;10.662;2022-07-12T08:51:41;98075.94;;;23.44;48.33
72677;BME280;60755;51.374;10.662;2022-07-12T08:54:10;98075.31;;;23.20;49.14
72677;BME280;60755;51.374;10.662;2022-07-12T08:56:38;98076.91;;;22.18;50.72
72677;BME280;60755;51.374;10.662;2022-07-12T08:59:12;98085.22;;;21.74;53.29
72677;BME280;60755;51.374;10.662;2022-07-12T09:01:44;98081.28;;;21.42;52.45
72677;BME280;60755;51.374;10.662;2022-07-12T09:04:12;98080.50;;;21.42;53.32
72677;BME280;60755;51.374;10.662;2022-07-12T09:06:39;98076.03;;;21.56;51.32
72677;BME280;60755;51.374;10.662;2022-07-12T09:09:07;98086.59;;;22.52;54.01
72677;BME280;60755;51.374;10.662;2022-07-12T09:11:36;98076.75;;;22.28;50.88
72677;BME280;60755;51.374;10.662;2022-07-12T09:14:03;98070.94;;;23.10;47.82
72677;BME280;60755;51.374;10.662;2022-07-12T09:16:30;98081.63;;;22.78;49.50
72677;BME280;60755;51.374;10.662;2022-07-12T09:19:13;98077.84;;;22.46;50.19
72677;BME280;60755;51.374;10.662;2022-07-12T09:21:47;98082.63;;;21.64;51.13
72677;BME280;60755;51.374;10.662;2022-07-12T09:24:16;98077.34;;;22.25;50.88
72677;BME280;60755;51.374;10.662;2022-07-12T09:26:42;98085.66;;;21.57;50.36
72677;BME280;60755;51.374;10.662;2022-07-12T09:29:11;98086.19;;;21.01;50.81
72677;BME280;60755;51.374;10.662;2022-07-12T09:31:39;98078.22;;;21.54;51.92
72677;BME280;60755;51.374;10.662;2022-07-12T09:34:26;98081.00;;;22.29;49.21
72677;BME280;60755;51.374;10.662;2022-07-12T09:37:09;98085.94;;;22.41;48.55
72677;BME280;60755;51.374;10.662;2022-07-12T09:39:38;98090.25;;;21.99;49.02
72677;BME280;60755;51.374;10.662;2022-07-12T09:42:06;98088.88;;;22.77;47.62
72677;BME280;60755;51.374;10.662;2022-07-12T09:44:34;98081.19;;;23.36;49.56
72677;BME280;60755;51.374;10.662;2022-07-12T09:47:01;98087.69;;;22.83;49.27
72677;BME280;60755;51.374;10.662;2022-07-12T09:49:28;98081.09;;;22.43;50.86
72677;BME280;60755;51.374;10.662;2022-07-12T09:51:55;98079.38;;;22.33;48.42
72677;BME280;60755;51.374;10.662;2022-07-12T09:54:25;98074.41;;;22.03;50.73
72677;BME280;60755;51.374;10.662;2022-07-12T09:56:54;98085.53;;;22.15;48.99
72677;BME280;60755;51.374;10.662;2022-07-12T09:59:27;98084.44;;;21.92;49.45
72677;BME280;60755;51.374;10.662;2022-07-12T10:01:54;98085.16;;;21.55;48.71
72677;BME280;60755;51.374;10.662;2022-07-12T10:04:29;98097.28;;;21.71;48.38
72677;BME280;60755;51.374;10.662;2022-07-12T10:06:56;98103.38;;;21.77;48.36
72677;BME280;60755;51.374;10.662;2022-07-12T10:09:23;98106.66;;;21.93;47.73
72677;BME280;60755;51.374;10.662;2022-07-12T10:11:50;98107.09;;;22.00;50.47
72677;BME280;60755;51.374;10.662;2022-07-12T10:14:19;98112.88;;;22.31;50.39
72677;BME280;60755;51.374;10.662;2022-07-12T10:16:50;98102.00;;;22.60;48.58
72677;BME280;60755;51.374;10.662;2022-07-12T10:19:27;98102.75;;;22.28;47.89
72677;BME280;60755;51.374;10.662;2022-07-12T10:24:51;98096.09;;;22.63;47.45
72677;BME280;60755;51.374;10.662;2022-07-12T10:27:30;98094.41;;;22.67;48.33
72677;BME280;60755;51.374;10.662;2022-07-12T10:32:51;98093.06;;;22.83;46.94
72677;BME280;60755;51.374;10.662;2022-07-12T10:35:20;98081.97;;;23.23;45.59
72677;BME280;60755;51.374;10.662;2022-07-12T10:38:18;98090.56;;;22.73;47.36
72677;BME280;60755;51.374;10.662;2022-07-12T10:40:49;98091.16;;;22.70;47.15
72677;BME280;60755;51.374;10.662;2022-07-12T10:43:20;98091.66;;;22.72;46.41
72677;BME280;60755;51.374;10.662;2022-07-12T10:45:49;98088.00;;;22.82;46.63
72677;BME280;60755;51.374;10.662;2022-07-12T10:48:22;98086.91;;;22.31;46.87
72677;BME280;60755;51.374;10.662;2022-07-12T10:50:55;98090.28;;;21.75;45.63
72677;BME280;60755;51.374;10.662;2022-07-12T10:53:24;98084.59;;;22.01;45.62
72677;BME280;60755;51.374;10.662;2022-07-12T10:56:10;98078.34;;;22.48;45.07
72677;BME280;60755;51.374;10.662;2022-07-12T10:58:38;98076.69;;;23.04;47.88
72677;BME280;60755;51.374;10.662;2022-07-12T11:01:09;98067.75;;;23.22;44.22
72677;BME280;60755;51.374;10.662;2022-07-12T11:03:42;98078.31;;;22.86;45.18
72677;BME280;60755;51.374;10.662;2022-07-12T11:06:10;98074.34;;;22.65;45.34
72677;BME280;60755;51.374;10.662;2022-07-12T11:08:53;98074.94;;;23.27;45.66
72677;BME280;60755;51.374;10.662;2022-07-12T11:11:21;98075.13;;;23.58;41.61
72677;BME280;60755;51.374;10.662;2022-07-12T11:13:48;98071.69;;;23.71;40.05
72677;BME280;60755;51.374;10.662;2022-07-12T11:16:14;98062.59;;;23.26;40.10
72677;BME280;60755;51.374;10.662;2022-07-12T11:18:43;98062.81;;;23.29;42.98
72677;BME280;60755;51.374;10.662;2022-07-12T11:21:10;98067.03;;;23.03;43.43
72677;BME280;60755;51.374;10.662;2022-07-12T11:23:37;98068.94;;;23.16;43.53
72677;BME280;60755;51.374;10.662;2022-07-12T11:26:06;98067.88;;;23.44;42.92
72677;BME280;60755;51.374;10.662;2022-07-12T11:28:32;98042.78;;;23.68;45.31
72677;BME280;60755;51.374;10.662;2022-07-12T11:31:03;98043.44;;;23.87;43.23
72677;BME280;60755;51.374;10.662;2022-07-12T11:33:31;98048.72;;;23.79;40.04
72677;BME280;60755;51.374;10.662;2022-07-12T11:36:00;98042.38;;;23.61;40.74
72677;BME280;60755;51.374;10.662;2022-07-12T11:38:29;98052.97;;;22.78;41.86
72677;BME280;60755;51.374;10.662;2022-07-12T11:40:56;98047.19;;;23.04;42.49
72677;BME280;60755;51.374;10.662;2022-07-12T11:43:23;98040.16;;;23.35;41.73
72677;BME280;60755;51.374;10.662;2022-07-12T11:45:50;98040.53;;;23.15;41.01
72677;BME280;60755;51.374;10.662;2022-07-12T11:48:17;98049.69;;;23.14;43.10
72677;BME280;60755;51.374;10.662;2022-07-12T11:50:44;98047.28;;;22.80;43.10
72677;BME280;60755;51.374;10.662;2022-07-12T11:53:16;98038.56;;;23.21;42.64
72677;BME280;60755;51.374;10.662;2022-07-12T11:55:44;98039.81;;;22.96;41.85
72677;BME280;60755;51.374;10.662;2022-07-12T11:58:11;98033.56;;;23.00;42.62
72677;BME280;60755;51.374;10.662;2022-07-12T12:00:38;98035.47;;;23.13;41.03
72677;BME280;60755;51.374;10.662;2022-07-12T12:03:04;98030.78;;;23.05;40.68
72677;BME280;60755;51.374;10.662;2022-07-12T12:05:31;98028.22;;;23.14;40.12
72677;BME280;60755;51.374;10.662;2022-07-12T12:07:58;98040.63;;;23.10;42.22
72677;BME280;60755;51.374;10.662;2022-07-12T12:10:25;98025.84;;;23.26;41.56
72677;BME280;60755;51.374;10.662;2022-07-12T12:12:54;98020.28;;;23.64;41.13
72677;BME280;60755;51.374;10.662;2022-07-12T12:15:22;98021.88;;;23.79;41.67
72677;BME280;60755;51.374;10.662;2022-07-12T12:17:52;98029.75;;;23.75;41.74
72677;BME280;60755;51.374;10.662;2022-07-12T12:20:20;98019.88;;;23.70;41.73
72677;BME280;60755;51.374;10.662;2022-07-12T12:22:49;98019.88;;;23.57;41.46
72677;BME280;60755;51.374;10.662;2022-07-12T12:25:15;98015.09;;;23.81;42.83
72677;BME280;60755;51.374;10.662;2022-07-12T12:27:45;98012.84;;;24.11;41.89
72677;BME280;60755;51.374;10.662;2022-07-12T12:30:12;98005.38;;;24.30;40.57
72677;BME280;60755;51.374;10.662;2022-07-12T12:32:50;98003.44;;;24.22;40.23
72677;BME280;60755;51.374;10.662;2022-07-12T12:35:18;98004.09;;;24.41;39.81
72677;BME280;60755;51.374;10.662;2022-07-12T12:37:52;98007.59;;;24.28;40.47
72677;BME280;60755;51.374;10.662;2022-07-12T12:40:19;98004.06;;;24.19;40.67
72677;BME280;60755;51.374;10.662;2022-07-12T12:42:48;98007.59;;;24.28;41.21
72677;BME280;60755;51.374;10.662;2022-07-12T12:45:19;98002.94;;;24.20;40.57
72677;BME280;60755;51.374;10.662;2022-07-12T12:47:56;97988.88;;;24.37;41.36
72677;BME280;60755;51.374;10.662;2022-07-12T12:50:40;97999.94;;;24.35;41.34
72677;BME280;60755;51.374;10.662;2022-07-12T12:53:08;97996.47;;;24.21;39.94
72677;BME280;60755;51.374;10.662;2022-07-12T12:55:36;97996.69;;;24.24;41.00
72677;BME280;60755;51.374;10.662;2022-07-12T12:58:04;98006.38;;;24.12;39.83
72677;BME280;60755;51.374;10.662;2022-07-12T13:00:31;97995.03;;;24.37;40.44
72677;BME280;60755;51.374;10.662;2022-07-12T13:02:58;98001.91;;;24.07;40.20